sensor_id;sensor_type;location;lat;lon;timestamp;P1;durP1;ratioP1;P2;durP2;ratioP2
15043;SDS011;7619;48.562;8.910;2024-01-07T00:01:48;12.23;;;7.37;;
15043;SDS011;7619;48.562;8.910;2024-01-07T00:04:16;11.03;;;7.80;;
15043;SDS011;7619;48.562;8.910;2024-01-07T00:06:46;10.43;;;6.97;;
15043;SDS011;7619;48.562;8.910;2024-01-07T00:09:14;10.33;;;7.57;;
15043;SDS011;7619;48.562;8.910;2024-01-07T00:11:42;12.47;;;7.63;;
15043;SDS011;7619;48.562;8.910;2024-01-07T00:14:12;8.13;;;6.47;;
15043;SDS011;7619;48.562;8.910;2024-01-07T00:16:40;12.80;;;8.07;;
15043;SDS011;7619;48.562;8.910;2024-01-07T00:19:08;10.97;;;7.37;;
15043;SDS011;7619;48.562;8.910;2024-01-07T00:21:36;11.10;;;8.50;;
15043;SDS011;7619;48.562;8.910;2024-01-07T00:24:05;12.13;;;7.83;;
15043;SDS011;7619;48.562;8.910;2024-01-07T00:26:33;10.97;;;7.73;;
15043;SDS011;7619;48.562;8.910;2024-01-07T00:29:01;12.93;;;8.10;;
15043;SDS011;7619;48.562;8.910;2024-01-07T00:31:29;11.47;;;7.60;;
15043;SDS011;7619;48.562;8.910;2024-01-07T00:33:57;10.60;;;7.47;;
15043;SDS011;7619;48.562;8.910;2024-01-07T00:36:25;10.83;;;7.50;;
15043;SDS011;7619;48.562;8.910;2024-01-07T00:38:53;11.07;;;7.67;;
15043;SDS011;7619;48.562;8.910;2024-01-07T00:41:21;12.77;;;8.53;;
15043;SDS011;7619;48.562;8.910;2024-01-07T00:43:51;12.70;;;8.47;;
15043;SDS011;7619;48.562;8.910;2024-01-07T00:46:19;12.47;;;8.47;;
15043;SDS011;7619;48.562;8.910;2024-01-07T00:48:48;18.10;;;7.70;;
15043;SDS011;7619;48.562;8.910;2024-01-07T00:51:16;13.83;;;8.60;;
15043;SDS011;7619;48.562;8.910;2024-01-07T00:53:44;11.50;;;7.93;;
15043;SDS011;7619;48.562;8.910;2024-01-07T00:56:12;13.53;;;7.93;;
15043;SDS011;7619;48.562;8.910;2024-01-07T00:58:40;12.70;;;7.97;;
15043;SDS011;7619;48.562;8.910;2024-01-07T01:01:08;11.80;;;8.07;;
15043;SDS011;7619;48.562;8.910;2024-01-07T01:03:37;13.13;;;8.43;;
15043;SDS011;7619;48.562;8.910;2024-01-07T01:06:05;12.10;;;8.30;;
15043;SDS011;7619;48.562;8.910;2024-01-07T01:08:33;12.93;;;8.10;;
15043;SDS011;7619;48.562;8.910;2024-01-07T01:11:01;13.47;;;8.60;;
15043;SDS011;7619;48.562;8.910;2024-01-07T01:13:29;11.20;;;7.20;;
15043;SDS011;7619;48.562;8.910;2024-01-07T01:15:57;12.57;;;7.93;;
15043;SDS011;7619;48.562;8.910;2024-01-07T01:18:25;9.80;;;6.30;;
15043;SDS011;7619;48.562;8.910;2024-01-07T01:20:53;8.70;;;6.23;;
15043;SDS011;7619;48.562;8.910;2024-01-07T01:23:23;9.37;;;6.23;;
15043;SDS011;7619;48.562;8.910;2024-01-07T01:25:51;8.03;;;6.20;;
15043;SDS011;7619;48.562;8.910;2024-01-07T01:28:19;7.93;;;5.77;;
15043;SDS011;7619;48.562;8.910;2024-01-07T01:30:47;9.30;;;5.80;;
15043;SDS011;7619;48.562;8.910;2024-01-07T01:36:04;10.57;;;6.60;;
15043;SDS011;7619;48.562;8.910;2024-01-07T01:38:33;10.43;;;6.17;;
15043;SDS011;7619;48.562;8.910;2024-01-07T01:41:01;8.70;;;5.47;;
15043;SDS011;7619;48.562;8.910;2024-01-07T01:43:29;9.70;;;6.13;;
15043;SDS011;7619;48.562;8.910;2024-01-07T01:45:58;9.30;;;5.87;;
15043;SDS011;7619;48.562;8.910;2024-01-07T01:48:26;9.73;;;6.90;;
15043;SDS011;7619;48.562;8.910;2024-01-07T01:50:55;9.97;;;6.70;;
15043;SDS011;7619;48.562;8.910;2024-01-07T01:53:25;9.70;;;6.40;;
15043;SDS011;7619;48.562;8.910;2024-01-07T01:55:53;10.77;;;6.23;;
15043;SDS011;7619;48.562;8.910;2024-01-07T01:58:22;10.17;;;6.03;;
15043;SDS011;7619;48.562;8.910;2024-01-07T02:00:50;9.67;;;6.97;;
15043;SDS011;7619;48.562;8.910;2024-01-07T02:03:19;10.23;;;6.27;;
15043;SDS011;7619;48.562;8.910;2024-01-07T02:05:49;10.83;;;6.67;;
15043;SDS011;7619;48.562;8.910;2024-01-07T02:08:18;11.87;;;7.07;;
15043;SDS011;7619;48.562;8.910;2024-01-07T02:10:46;10.63;;;6.47;;
15043;SDS011;7619;48.562;8.910;2024-01-07T02:13:14;11.87;;;6.57;;
15043;SDS011;7619;48.562;8.910;2024-01-07T02:15:43;12.70;;;7.27;;
15043;SDS011;7619;48.562;8.910;2024-01-07T02:18:11;13.20;;;7.00;;
15043;SDS011;7619;48.562;8.910;2024-01-07T02:20:39;11.33;;;6.33;;
15043;SDS011;7619;48.562;8.910;2024-01-07T02:23:07;11.87;;;6.70;;
15043;SDS011;7619;48.562;8.910;2024-01-07T02:25:35;10.63;;;6.17;;
15043;SDS011;7619;48.562;8.910;2024-01-07T02:28:04;13.67;;;7.53;;
15043;SDS011;7619;48.562;8.910;2024-01-07T02:30:32;10.40;;;6.43;;
15043;SDS011;7619;48.562;8.910;2024-01-07T02:33:04;9.27;;;6.40;;
15043;SDS011;7619;48.562;8.910;2024-01-07T02:35:32;9.30;;;5.87;;
15043;SDS011;7619;48.562;8.910;2024-01-07T02:38:00;13.60;;;6.87;;
15043;SDS011;7619;48.562;8.910;2024-01-07T02:40:28;9.30;;;6.27;;
15043;SDS011;7619;48.562;8.910;2024-01-07T02:42:56;10.33;;;6.17;;
15043;SDS011;7619;48.562;8.910;2024-01-07T02:45:25;12.87;;;6.60;;
15043;SDS011;7619;48.562;8.910;2024-01-07T02:47:53;11.20;;;6.07;;
15043;SDS011;7619;48.562;8.910;2024-01-07T02:50:21;11.70;;;7.03;;
15043;SDS011;7619;48.562;8.910;2024-01-07T02:52:49;10.10;;;6.67;;
15043;SDS011;7619;48.562;8.910;2024-01-07T02:55:18;14.60;;;7.30;;
15043;SDS011;7619;48.562;8.910;2024-01-07T02:57:46;10.63;;;6.93;;
15043;SDS011;7619;48.562;8.910;2024-01-07T03:00:14;13.13;;;7.70;;
15043;SDS011;7619;48.562;8.910;2024-01-07T03:02:43;11.30;;;6.43;;
15043;SDS011;7619;48.562;8.910;2024-01-07T03:05:11;10.57;;;7.03;;
15043;SDS011;7619;48.562;8.910;2024-01-07T03:07:39;12.03;;;7.13;;
15043;SDS011;7619;48.562;8.910;2024-01-07T03:10:08;15.17;;;7.70;;
15043;SDS011;7619;48.562;8.910;2024-01-07T03:12:36;14.37;;;8.30;;
15043;SDS011;7619;48.562;8.910;2024-01-07T03:15:05;13.43;;;7.73;;
15043;SDS011;7619;48.562;8.910;2024-01-07T03:17:35;13.93;;;7.20;;
15043;SDS011;7619;48.562;8.910;2024-01-07T03:20:03;10.97;;;6.63;;
15043;SDS011;7619;48.562;8.910;2024-01-07T03:22:31;11.00;;;6.03;;
15043;SDS011;7619;48.562;8.910;2024-01-07T03:24:59;14.80;;;8.10;;
15043;SDS011;7619;48.562;8.910;2024-01-07T03:27:27;14.67;;;7.10;;
15043;SDS011;7619;48.562;8.910;2024-01-07T03:29:55;12.70;;;7.57;;
15043;SDS011;7619;48.562;8.910;2024-01-07T03:32:23;14.20;;;8.37;;
15043;SDS011;7619;48.562;8.910;2024-01-07T03:34:52;19.03;;;8.60;;
15043;SDS011;7619;48.562;8.910;2024-01-07T03:37:20;14.97;;;7.73;;
15043;SDS011;7619;48.562;8.910;2024-01-07T03:39:48;16.87;;;8.47;;
15043;SDS011;7619;48.562;8.910;2024-01-07T03:42:16;12.47;;;7.47;;
15043;SDS011;7619;48.562;8.910;2024-01-07T03:44:44;11.93;;;7.50;;
15043;SDS011;7619;48.562;8.910;2024-01-07T03:47:12;12.37;;;7.73;;
15043;SDS011;7619;48.562;8.910;2024-01-07T03:49:40;9.90;;;6.57;;
15043;SDS011;7619;48.562;8.910;2024-01-07T03:52:08;11.33;;;6.50;;
15043;SDS011;7619;48.562;8.910;2024-01-07T03:54:36;12.70;;;7.00;;
15043;SDS011;7619;48.562;8.910;2024-01-07T03:57:04;11.73;;;7.23;;
15043;SDS011;7619;48.562;8.910;2024-01-07T03:59:32;13.83;;;7.23;;
15043;SDS011;7619;48.562;8.910;2024-01-07T04:02:00;12.50;;;7.10;;
15043;SDS011;7619;48.562;8.910;2024-01-07T04:04:29;17.10;;;8.17;;
15043;SDS011;7619;48.562;8.910;2024-01-07T04:06:57;15.87;;;7.60;;
15043;SDS011;7619;48.562;8.910;2024-01-07T04:09:25;12.63;;;7.50;;
15043;SDS011;7619;48.562;8.910;2024-01-07T04:11:53;11.23;;;7.93;;
15043;SDS011;7619;48.562;8.910;2024-01-07T04:14:21;12.37;;;7.53;;
15043;SDS011;7619;48.562;8.910;2024-01-07T04:16:49;13.93;;;8.60;;
15043;SDS011;7619;48.562;8.910;2024-01-07T04:19:17;11.73;;;7.80;;
15043;SDS011;7619;48.562;8.910;2024-01-07T04:21:46;16.03;;;9.27;;
15043;SDS011;7619;48.562;8.910;2024-01-07T04:24:14;14.90;;;8.83;;
15043;SDS011;7619;48.562;8.910;2024-01-07T04:26:42;15.33;;;8.57;;
15043;SDS011;7619;48.562;8.910;2024-01-07T04:29:10;15.87;;;9.33;;
15043;SDS011;7619;48.562;8.910;2024-01-07T04:31:38;14.17;;;7.93;;
15043;SDS011;7619;48.562;8.910;2024-01-07T04:34:06;14.47;;;8.97;;
15043;SDS011;7619;48.562;8.910;2024-01-07T04:36:34;13.13;;;7.93;;
15043;SDS011;7619;48.562;8.910;2024-01-07T04:39:02;13.63;;;9.73;;
15043;SDS011;7619;48.562;8.910;2024-01-07T04:41:30;15.90;;;9.50;;
15043;SDS011;7619;48.562;8.910;2024-01-07T04:43:58;15.27;;;10.07;;
15043;SDS011;7619;48.562;8.910;2024-01-07T04:46:26;15.10;;;8.27;;
15043;SDS011;7619;48.562;8.910;2024-01-07T04:48:54;15.47;;;9.63;;
15043;SDS011;7619;48.562;8.910;2024-01-07T04:51:22;14.47;;;9.70;;
15043;SDS011;7619;48.562;8.910;2024-01-07T04:53:50;16.03;;;10.20;;
15043;SDS011;7619;48.562;8.910;2024-01-07T04:56:18;17.83;;;9.70;;
15043;SDS011;7619;48.562;8.910;2024-01-07T04:58:46;13.93;;;9.63;;
15043;SDS011;7619;48.562;8.910;2024-01-07T05:01:14;22.07;;;10.37;;
15043;SDS011;7619;48.562;8.910;2024-01-07T05:03:42;17.57;;;10.97;;
15043;SDS011;7619;48.562;8.910;2024-01-07T05:06:10;14.13;;;9.63;;
15043;SDS011;7619;48.562;8.910;2024-01-07T05:08:39;20.07;;;10.80;;
15043;SDS011;7619;48.562;8.910;2024-01-07T05:11:07;16.70;;;10.50;;
15043;SDS011;7619;48.562;8.910;2024-01-07T05:13:35;20.43;;;10.33;;
15043;SDS011;7619;48.562;8.910;2024-01-07T05:16:04;16.50;;;10.70;;
15043;SDS011;7619;48.562;8.910;2024-01-07T05:18:32;19.53;;;10.93;;
15043;SDS011;7619;48.562;8.910;2024-01-07T05:21:00;14.07;;;10.07;;
15043;SDS011;7619;48.562;8.910;2024-01-07T05:23:28;14.20;;;10.67;;
15043;SDS011;7619;48.562;8.910;2024-01-07T05:25:56;15.67;;;11.00;;
15043;SDS011;7619;48.562;8.910;2024-01-07T05:28:24;14.73;;;10.77;;
15043;SDS011;7619;48.562;8.910;2024-01-07T05:30:52;16.43;;;10.33;;
15043;SDS011;7619;48.562;8.910;2024-01-07T05:33:20;17.60;;;10.80;;
15043;SDS011;7619;48.562;8.910;2024-01-07T05:35:48;15.43;;;10.63;;
15043;SDS011;7619;48.562;8.910;2024-01-07T05:38:16;17.47;;;10.87;;
15043;SDS011;7619;48.562;8.910;2024-01-07T05:40:44;18.10;;;10.73;;
15043;SDS011;7619;48.562;8.910;2024-01-07T05:43:12;17.13;;;10.60;;
15043;SDS011;7619;48.562;8.910;2024-01-07T05:45:40;14.13;;;9.83;;
15043;SDS011;7619;48.562;8.910;2024-01-07T05:48:08;20.27;;;10.60;;
15043;SDS011;7619;48.562;8.910;2024-01-07T05:53:23;16.20;;;10.47;;
15043;SDS011;7619;48.562;8.910;2024-01-07T05:55:51;14.13;;;9.27;;
15043;SDS011;7619;48.562;8.910;2024-01-07T05:58:18;9.10;;;7.13;;
15043;SDS011;7619;48.562;8.910;2024-01-07T06:00:46;15.13;;;10.23;;
15043;SDS011;7619;48.562;8.910;2024-01-07T06:03:14;11.43;;;8.60;;
15043;SDS011;7619;48.562;8.910;2024-01-07T06:05:42;10.67;;;8.10;;
15043;SDS011;7619;48.562;8.910;2024-01-07T06:08:11;12.33;;;7.43;;
15043;SDS011;7619;48.562;8.910;2024-01-07T06:10:40;11.07;;;7.30;;
15043;SDS011;7619;48.562;8.910;2024-01-07T06:13:07;12.77;;;8.07;;
15043;SDS011;7619;48.562;8.910;2024-01-07T06:15:35;16.03;;;9.20;;
15043;SDS011;7619;48.562;8.910;2024-01-07T06:18:04;11.30;;;7.67;;
15043;SDS011;7619;48.562;8.910;2024-01-07T06:20:32;11.17;;;8.00;;
15043;SDS011;7619;48.562;8.910;2024-01-07T06:23:00;9.03;;;6.77;;
15043;SDS011;7619;48.562;8.910;2024-01-07T06:25:28;9.30;;;6.43;;
15043;SDS011;7619;48.562;8.910;2024-01-07T06:27:56;11.17;;;7.07;;
15043;SDS011;7619;48.562;8.910;2024-01-07T06:30:24;8.90;;;7.23;;
15043;SDS011;7619;48.562;8.910;2024-01-07T06:32:52;10.53;;;6.80;;
15043;SDS011;7619;48.562;8.910;2024-01-07T06:35:21;9.27;;;6.90;;
15043;SDS011;7619;48.562;8.910;2024-01-07T06:37:49;10.67;;;6.93;;
15043;SDS011;7619;48.562;8.910;2024-01-07T06:40:17;12.27;;;7.10;;
15043;SDS011;7619;48.562;8.910;2024-01-07T06:42:46;8.93;;;6.77;;
15043;SDS011;7619;48.562;8.910;2024-01-07T06:45:15;8.87;;;7.57;;
15043;SDS011;7619;48.562;8.910;2024-01-07T06:47:44;9.23;;;7.17;;
15043;SDS011;7619;48.562;8.910;2024-01-07T06:50:13;11.57;;;7.93;;
15043;SDS011;7619;48.562;8.910;2024-01-07T06:52:41;12.10;;;7.97;;
15043;SDS011;7619;48.562;8.910;2024-01-07T06:55:09;12.50;;;8.30;;
15043;SDS011;7619;48.562;8.910;2024-01-07T06:57:37;9.87;;;6.87;;
15043;SDS011;7619;48.562;8.910;2024-01-07T07:00:08;13.37;;;7.67;;
15043;SDS011;7619;48.562;8.910;2024-01-07T07:02:36;8.23;;;6.90;;
15043;SDS011;7619;48.562;8.910;2024-01-07T07:05:04;10.07;;;7.30;;
15043;SDS011;7619;48.562;8.910;2024-01-07T07:07:33;10.70;;;6.93;;
15043;SDS011;7619;48.562;8.910;2024-01-07T07:10:01;11.07;;;6.73;;
15043;SDS011;7619;48.562;8.910;2024-01-07T07:12:30;10.77;;;7.70;;
15043;SDS011;7619;48.562;8.910;2024-01-07T07:14:58;7.93;;;6.00;;
15043;SDS011;7619;48.562;8.910;2024-01-07T07:17:26;11.10;;;7.43;;
15043;SDS011;7619;48.562;8.910;2024-01-07T07:19:54;10.90;;;7.77;;
15043;SDS011;7619;48.562;8.910;2024-01-07T07:22:22;12.97;;;7.97;;
15043;SDS011;7619;48.562;8.910;2024-01-07T07:24:50;12.30;;;7.77;;
15043;SDS011;7619;48.562;8.910;2024-01-07T07:27:18;11.13;;;7.37;;
15043;SDS011;7619;48.562;8.910;2024-01-07T07:29:46;10.13;;;7.90;;
15043;SDS011;7619;48.562;8.910;2024-01-07T07:32:14;11.20;;;7.93;;
15043;SDS011;7619;48.562;8.910;2024-01-07T07:34:42;13.10;;;9.27;;
15043;SDS011;7619;48.562;8.910;2024-01-07T07:37:10;9.10;;;7.30;;
15043;SDS011;7619;48.562;8.910;2024-01-07T07:39:38;12.77;;;9.17;;
15043;SDS011;7619;48.562;8.910;2024-01-07T07:42:06;10.50;;;8.17;;
15043;SDS011;7619;48.562;8.910;2024-01-07T07:44:34;10.07;;;8.70;;
15043;SDS011;7619;48.562;8.910;2024-01-07T07:47:03;10.77;;;7.70;;
15043;SDS011;7619;48.562;8.910;2024-01-07T07:49:31;11.53;;;8.77;;
15043;SDS011;7619;48.562;8.910;2024-01-07T07:51:59;12.30;;;8.27;;
15043;SDS011;7619;48.562;8.910;2024-01-07T07:54:27;10.93;;;8.07;;
15043;SDS011;7619;48.562;8.910;2024-01-07T07:56:55;9.23;;;7.23;;
15043;SDS011;7619;48.562;8.910;2024-01-07T07:59:23;10.47;;;8.23;;
15043;SDS011;7619;48.562;8.910;2024-01-07T08:01:51;10.70;;;8.03;;
15043;SDS011;7619;48.562;8.910;2024-01-07T08:04:19;9.27;;;7.90;;
15043;SDS011;7619;48.562;8.910;2024-01-07T08:06:47;10.27;;;8.07;;
15043;SDS011;7619;48.562;8.910;2024-01-07T08:09:15;11.63;;;7.43;;
15043;SDS011;7619;48.562;8.910;2024-01-07T08:11:43;9.47;;;7.53;;
15043;SDS011;7619;48.562;8.910;2024-01-07T08:14:11;10.73;;;7.50;;
15043;SDS011;7619;48.562;8.910;2024-01-07T08:16:39;10.53;;;7.10;;
15043;SDS011;7619;48.562;8.910;2024-01-07T08:19:08;10.30;;;7.10;;
15043;SDS011;7619;48.562;8.910;2024-01-07T08:21:36;11.57;;;7.57;;
15043;SDS011;7619;48.562;8.910;2024-01-07T08:24:05;8.43;;;6.43;;
15043;SDS011;7619;48.562;8.910;2024-01-07T08:26:33;9.70;;;6.83;;
15043;SDS011;7619;48.562;8.910;2024-01-07T08:29:01;9.53;;;7.47;;
15043;SDS011;7619;48.562;8.910;2024-01-07T08:31:29;9.87;;;6.87;;
15043;SDS011;7619;48.562;8.910;2024-01-07T08:33:57;7.53;;;6.33;;
15043;SDS011;7619;48.562;8.910;2024-01-07T08:36:25;8.73;;;6.60;;
15043;SDS011;7619;48.562;8.910;2024-01-07T08:38:53;9.27;;;6.70;;
15043;SDS011;7619;48.562;8.910;2024-01-07T08:41:21;8.33;;;6.40;;
15043;SDS011;7619;48.562;8.910;2024-01-07T08:43:49;9.27;;;5.77;;
15043;SDS011;7619;48.562;8.910;2024-01-07T08:46:17;8.20;;;6.00;;
15043;SDS011;7619;48.562;8.910;2024-01-07T08:48:46;7.63;;;6.03;;
15043;SDS011;7619;48.562;8.910;2024-01-07T08:51:14;7.27;;;5.70;;
15043;SDS011;7619;48.562;8.910;2024-01-07T08:53:42;8.20;;;5.33;;
15043;SDS011;7619;48.562;8.910;2024-01-07T08:56:11;6.80;;;6.10;;
15043;SDS011;7619;48.562;8.910;2024-01-07T08:58:40;7.23;;;5.37;;
15043;SDS011;7619;48.562;8.910;2024-01-07T09:01:09;10.07;;;5.70;;
15043;SDS011;7619;48.562;8.910;2024-01-07T09:03:37;6.43;;;5.37;;
15043;SDS011;7619;48.562;8.910;2024-01-07T09:06:05;10.73;;;6.13;;
15043;SDS011;7619;48.562;8.910;2024-01-07T09:08:34;6.80;;;5.10;;
15043;SDS011;7619;48.562;8.910;2024-01-07T09:11:04;7.10;;;5.30;;
15043;SDS011;7619;48.562;8.910;2024-01-07T09:13:33;6.73;;;5.27;;
15043;SDS011;7619;48.562;8.910;2024-01-07T09:16:01;9.50;;;5.67;;
15043;SDS011;7619;48.562;8.910;2024-01-07T09:18:29;9.30;;;6.00;;
15043;SDS011;7619;48.562;8.910;2024-01-07T09:20:57;7.90;;;5.50;;
15043;SDS011;7619;48.562;8.910;2024-01-07T09:23:25;8.53;;;6.03;;
15043;SDS011;7619;48.562;8.910;2024-01-07T09:25:53;10.40;;;5.43;;
15043;SDS011;7619;48.562;8.910;2024-01-07T09:28:21;6.67;;;5.37;;
15043;SDS011;7619;48.562;8.910;2024-01-07T09:30:49;8.17;;;5.63;;
15043;SDS011;7619;48.562;8.910;2024-01-07T09:33:17;6.70;;;5.13;;
15043;SDS011;7619;48.562;8.910;2024-01-07T09:35:46;10.83;;;6.03;;
15043;SDS011;7619;48.562;8.910;2024-01-07T09:38:14;5.97;;;4.80;;
15043;SDS011;7619;48.562;8.910;2024-01-07T09:40:43;9.77;;;6.37;;
15043;SDS011;7619;48.562;8.910;2024-01-07T09:43:11;7.97;;;5.93;;
15043;SDS011;7619;48.562;8.910;2024-01-07T09:45:39;8.13;;;5.70;;
15043;SDS011;7619;48.562;8.910;2024-01-07T09:48:09;9.37;;;6.00;;
15043;SDS011;7619;48.562;8.910;2024-01-07T09:50:37;7.30;;;5.97;;
15043;SDS011;7619;48.562;8.910;2024-01-07T09:53:05;7.10;;;5.13;;
15043;SDS011;7619;48.562;8.910;2024-01-07T09:55:40;6.40;;;4.97;;
15043;SDS011;7619;48.562;8.910;2024-01-07T09:58:06;7.27;;;5.00;;
15043;SDS011;7619;48.562;8.910;2024-01-07T10:00:35;8.03;;;5.00;;
15043;SDS011;7619;48.562;8.910;2024-01-07T10:03:04;11.33;;;4.97;;
15043;SDS011;7619;48.562;8.910;2024-01-07T10:05:32;7.30;;;4.67;;
15043;SDS011;7619;48.562;8.910;2024-01-07T10:08:00;7.33;;;5.17;;
15043;SDS011;7619;48.562;8.910;2024-01-07T10:10:29;5.50;;;4.20;;
15043;SDS011;7619;48.562;8.910;2024-01-07T10:12:57;6.37;;;4.67;;
15043;SDS011;7619;48.562;8.910;2024-01-07T10:15:25;5.43;;;4.33;;
15043;SDS011;7619;48.562;8.910;2024-01-07T10:17:55;7.50;;;4.60;;
15043;SDS011;7619;48.562;8.910;2024-01-07T10:20:23;6.53;;;3.70;;
15043;SDS011;7619;48.562;8.910;2024-01-07T10:22:51;7.83;;;5.23;;
15043;SDS011;7619;48.562;8.910;2024-01-07T10:25:19;6.40;;;4.50;;
15043;SDS011;7619;48.562;8.910;2024-01-07T10:27:47;7.80;;;4.97;;
15043;SDS011;7619;48.562;8.910;2024-01-07T10:30:16;5.17;;;4.67;;
15043;SDS011;7619;48.562;8.910;2024-01-07T10:32:44;6.43;;;4.63;;
15043;SDS011;7619;48.562;8.910;2024-01-07T10:35:13;5.57;;;4.37;;
15043;SDS011;7619;48.562;8.910;2024-01-07T10:37:42;9.23;;;5.97;;
15043;SDS011;7619;48.562;8.910;2024-01-07T10:40:11;7.97;;;5.07;;
15043;SDS011;7619;48.562;8.910;2024-01-07T10:42:40;8.20;;;5.63;;
15043;SDS011;7619;48.562;8.910;2024-01-07T10:45:08;8.23;;;5.10;;
15043;SDS011;7619;48.562;8.910;2024-01-07T10:47:37;7.00;;;4.70;;
15043;SDS011;7619;48.562;8.910;2024-01-07T10:50:07;9.07;;;5.57;;
15043;SDS011;7619;48.562;8.910;2024-01-07T10:52:36;8.97;;;5.47;;
15043;SDS011;7619;48.562;8.910;2024-01-07T10:55:08;6.77;;;5.30;;
15043;SDS011;7619;48.562;8.910;2024-01-07T10:57:40;8.17;;;5.20;;
15043;SDS011;7619;48.562;8.910;2024-01-07T11:00:09;7.97;;;5.97;;
15043;SDS011;7619;48.562;8.910;2024-01-07T11:02:40;7.43;;;6.03;;
15043;SDS011;7619;48.562;8.910;2024-01-07T11:05:11;7.70;;;6.17;;
15043;SDS011;7619;48.562;8.910;2024-01-07T11:07:40;8.97;;;5.23;;
15043;SDS011;7619;48.562;8.910;2024-01-07T11:10:10;10.50;;;6.57;;
15043;SDS011;7619;48.562;8.910;2024-01-07T11:12:38;9.53;;;6.17;;
15043;SDS011;7619;48.562;8.910;2024-01-07T11:15:07;8.80;;;6.50;;
15043;SDS011;7619;48.562;8.910;2024-01-07T11:17:41;8.73;;;5.70;;
15043;SDS011;7619;48.562;8.910;2024-01-07T11:20:20;8.17;;;5.93;;
15043;SDS011;7619;48.562;8.910;2024-01-07T11:22:47;7.27;;;5.70;;
15043;SDS011;7619;48.562;8.910;2024-01-07T11:25:28;5.40;;;4.83;;
15043;SDS011;7619;48.562;8.910;2024-01-07T11:27:57;7.50;;;5.00;;
15043;SDS011;7619;48.562;8.910;2024-01-07T11:30:25;6.53;;;4.63;;
15043;SDS011;7619;48.562;8.910;2024-01-07T11:32:57;11.07;;;4.57;;
15043;SDS011;7619;48.562;8.910;2024-01-07T11:38:13;5.73;;;4.43;;
15043;SDS011;7619;48.562;8.910;2024-01-07T11:40:42;6.60;;;5.17;;
15043;SDS011;7619;48.562;8.910;2024-01-07T11:43:10;7.50;;;5.60;;
15043;SDS011;7619;48.562;8.910;2024-01-07T11:45:38;5.40;;;4.33;;
15043;SDS011;7619;48.562;8.910;2024-01-07T11:48:06;4.77;;;4.37;;
15043;SDS011;7619;48.562;8.910;2024-01-07T11:50:35;6.37;;;4.60;;
15043;SDS011;7619;48.562;8.910;2024-01-07T11:53:04;6.23;;;3.93;;
15043;SDS011;7619;48.562;8.910;2024-01-07T11:55:31;7.73;;;4.77;;
15043;SDS011;7619;48.562;8.910;2024-01-07T11:58:02;7.43;;;4.67;;
15043;SDS011;7619;48.562;8.910;2024-01-07T12:00:31;6.50;;;4.70;;
15043;SDS011;7619;48.562;8.910;2024-01-07T12:03:00;5.53;;;3.70;;
15043;SDS011;7619;48.562;8.910;2024-01-07T12:05:28;5.73;;;4.63;;
15043;SDS011;7619;48.562;8.910;2024-01-07T12:07:56;7.17;;;4.77;;
15043;SDS011;7619;48.562;8.910;2024-01-07T12:10:24;6.20;;;4.60;;
15043;SDS011;7619;48.562;8.910;2024-01-07T12:12:52;5.17;;;4.03;;
15043;SDS011;7619;48.562;8.910;2024-01-07T12:15:21;4.13;;;3.73;;
15043;SDS011;7619;48.562;8.910;2024-01-07T12:17:56;5.47;;;3.97;;
15043;SDS011;7619;48.562;8.910;2024-01-07T12:20:25;4.87;;;4.17;;
15043;SDS011;7619;48.562;8.910;2024-01-07T12:22:56;7.93;;;4.80;;
15043;SDS011;7619;48.562;8.910;2024-01-07T12:25:24;4.73;;;4.00;;
15043;SDS011;7619;48.562;8.910;2024-01-07T12:27:52;6.47;;;4.60;;
15043;SDS011;7619;48.562;8.910;2024-01-07T12:30:21;7.27;;;4.93;;
15043;SDS011;7619;48.562;8.910;2024-01-07T12:32:51;5.53;;;4.97;;
15043;SDS011;7619;48.562;8.910;2024-01-07T12:35:18;4.17;;;3.63;;
15043;SDS011;7619;48.562;8.910;2024-01-07T12:37:47;5.60;;;4.37;;
15043;SDS011;7619;48.562;8.910;2024-01-07T12:40:15;6.13;;;5.00;;
15043;SDS011;7619;48.562;8.910;2024-01-07T12:42:43;6.33;;;4.77;;
15043;SDS011;7619;48.562;8.910;2024-01-07T12:45:12;7.17;;;5.17;;
15043;SDS011;7619;48.562;8.910;2024-01-07T12:47:44;4.93;;;3.93;;
15043;SDS011;7619;48.562;8.910;2024-01-07T12:50:12;7.93;;;5.87;;
15043;SDS011;7619;48.562;8.910;2024-01-07T12:52:40;7.10;;;5.67;;
15043;SDS011;7619;48.562;8.910;2024-01-07T12:55:09;5.30;;;4.63;;
15043;SDS011;7619;48.562;8.910;2024-01-07T12:57:36;7.20;;;5.00;;
15043;SDS011;7619;48.562;8.910;2024-01-07T13:00:06;6.97;;;4.50;;
15043;SDS011;7619;48.562;8.910;2024-01-07T13:02:34;6.30;;;5.33;;
15043;SDS011;7619;48.562;8.910;2024-01-07T13:05:03;7.43;;;5.40;;
15043;SDS011;7619;48.562;8.910;2024-01-07T13:07:31;6.67;;;4.73;;
15043;SDS011;7619;48.562;8.910;2024-01-07T13:09:59;5.47;;;4.47;;
15043;SDS011;7619;48.562;8.910;2024-01-07T13:12:27;6.30;;;5.03;;
15043;SDS011;7619;48.562;8.910;2024-01-07T13:14:55;8.23;;;5.43;;
15043;SDS011;7619;48.562;8.910;2024-01-07T13:17:23;9.23;;;5.33;;
15043;SDS011;7619;48.562;8.910;2024-01-07T13:19:51;7.20;;;5.17;;
15043;SDS011;7619;48.562;8.910;2024-01-07T13:22:19;9.13;;;5.87;;
15043;SDS011;7619;48.562;8.910;2024-01-07T13:24:47;8.00;;;5.40;;
15043;SDS011;7619;48.562;8.910;2024-01-07T13:27:16;9.17;;;6.37;;
15043;SDS011;7619;48.562;8.910;2024-01-07T13:29:45;7.17;;;5.50;;
15043;SDS011;7619;48.562;8.910;2024-01-07T13:32:13;7.83;;;5.97;;
15043;SDS011;7619;48.562;8.910;2024-01-07T13:34:44;6.73;;;5.40;;
15043;SDS011;7619;48.562;8.910;2024-01-07T13:37:12;8.67;;;6.33;;
15043;SDS011;7619;48.562;8.910;2024-01-07T13:39:40;8.40;;;5.67;;
15043;SDS011;7619;48.562;8.910;2024-01-07T13:42:08;9.93;;;6.10;;
15043;SDS011;7619;48.562;8.910;2024-01-07T13:44:36;8.90;;;6.23;;
15043;SDS011;7619;48.562;8.910;2024-01-07T13:47:06;10.27;;;7.40;;
15043;SDS011;7619;48.562;8.910;2024-01-07T13:49:34;10.10;;;7.07;;
15043;SDS011;7619;48.562;8.910;2024-01-07T13:52:02;8.10;;;6.37;;
15043;SDS011;7619;48.562;8.910;2024-01-07T13:54:30;11.00;;;7.67;;
15043;SDS011;7619;48.562;8.910;2024-01-07T13:56:58;9.37;;;5.97;;
15043;SDS011;7619;48.562;8.910;2024-01-07T13:59:26;8.23;;;5.90;;
15043;SDS011;7619;48.562;8.910;2024-01-07T14:01:55;9.40;;;6.23;;
15043;SDS011;7619;48.562;8.910;2024-01-07T14:04:24;9.53;;;6.80;;
15043;SDS011;7619;48.562;8.910;2024-01-07T14:06:54;8.67;;;6.53;;
15043;SDS011;7619;48.562;8.910;2024-01-07T14:09:23;11.03;;;7.50;;
15043;SDS011;7619;48.562;8.910;2024-01-07T14:11:51;8.50;;;7.00;;
15043;SDS011;7619;48.562;8.910;2024-01-07T14:14:20;9.90;;;6.27;;
15043;SDS011;7619;48.562;8.910;2024-01-07T14:16:56;10.37;;;6.50;;
15043;SDS011;7619;48.562;8.910;2024-01-07T14:19:24;8.73;;;6.27;;
15043;SDS011;7619;48.562;8.910;2024-01-07T14:21:52;10.03;;;6.87;;
15043;SDS011;7619;48.562;8.910;2024-01-07T14:24:20;8.30;;;6.57;;
15043;SDS011;7619;48.562;8.910;2024-01-07T14:26:48;14.93;;;6.97;;
15043;SDS011;7619;48.562;8.910;2024-01-07T14:29:16;7.57;;;6.27;;
15043;SDS011;7619;48.562;8.910;2024-01-07T14:31:44;10.60;;;6.57;;
15043;SDS011;7619;48.562;8.910;2024-01-07T14:34:12;7.10;;;6.20;;
15043;SDS011;7619;48.562;8.910;2024-01-07T14:36:41;9.07;;;6.93;;
15043;SDS011;7619;48.562;8.910;2024-01-07T14:39:10;7.27;;;5.80;;
15043;SDS011;7619;48.562;8.910;2024-01-07T14:41:39;10.93;;;6.93;;
15043;SDS011;7619;48.562;8.910;2024-01-07T14:44:07;12.10;;;7.23;;
15043;SDS011;7619;48.562;8.910;2024-01-07T14:46:36;8.50;;;7.07;;
15043;SDS011;7619;48.562;8.910;2024-01-07T14:49:04;8.50;;;6.30;;
15043;SDS011;7619;48.562;8.910;2024-01-07T14:51:32;7.67;;;5.87;;
15043;SDS011;7619;48.562;8.910;2024-01-07T14:54:00;9.13;;;5.37;;
15043;SDS011;7619;48.562;8.910;2024-01-07T14:56:28;9.03;;;6.73;;
15043;SDS011;7619;48.562;8.910;2024-01-07T14:58:56;8.80;;;6.73;;
15043;SDS011;7619;48.562;8.910;2024-01-07T15:01:24;7.03;;;5.73;;
15043;SDS011;7619;48.562;8.910;2024-01-07T15:03:54;7.33;;;5.07;;
15043;SDS011;7619;48.562;8.910;2024-01-07T15:06:22;8.97;;;5.93;;
15043;SDS011;7619;48.562;8.910;2024-01-07T15:08:50;9.57;;;6.40;;